sensor_id;sensor_type;location;lat;lon;timestamp;P1;durP1;ratioP1;P2;durP2;ratioP2
50709;SDS011;37033;49.994;21.992;2023-06-10T00:00:56;10.50;;;7.60;;
50709;SDS011;37033;49.994;21.992;2023-06-10T00:03:47;8.40;;;7.10;;
50709;SDS011;37033;49.994;21.992;2023-06-10T00:06:18;9.30;;;7.50;;
50709;SDS011;37033;49.994;21.992;2023-06-10T00:08:51;9.00;;;7.40;;
50709;SDS011;37033;49.994;21.992;2023-06-10T00:11:22;8.30;;;7.40;;
50709;SDS011;37033;49.994;21.992;2023-06-10T00:13:53;7.40;;;6.70;;
50709;SDS011;37033;49.994;21.992;2023-06-10T00:16:23;7.90;;;7.10;;
50709;SDS011;37033;49.994;21.992;2023-06-10T00:18:54;8.20;;;6.90;;
50709;SDS011;37033;49.994;21.992;2023-06-10T00:21:29;11.50;;;7.70;;
50709;SDS011;37033;49.994;21.992;2023-06-10T00:24:05;7.70;;;6.20;;
50709;SDS011;37033;49.994;21.992;2023-06-10T00:26:39;8.10;;;6.30;;
50709;SDS011;37033;49.994;21.992;2023-06-10T00:29:10;7.60;;;6.90;;
50709;SDS011;37033;49.994;21.992;2023-06-10T00:31:41;9.40;;;7.00;;
50709;SDS011;37033;49.994;21.992;2023-06-10T00:34:13;8.20;;;7.00;;
50709;SDS011;37033;49.994;21.992;2023-06-10T00:36:44;8.40;;;6.60;;
50709;SDS011;37033;49.994;21.992;2023-06-10T00:39:15;7.90;;;7.00;;
50709;SDS011;37033;49.994;21.992;2023-06-10T00:41:45;7.20;;;6.50;;
50709;SDS011;37033;49.994;21.992;2023-06-10T00:44:16;7.50;;;6.60;;
50709;SDS011;37033;49.994;21.992;2023-06-10T00:46:47;7.40;;;6.80;;
50709;SDS011;37033;49.994;21.992;2023-06-10T00:49:19;8.30;;;7.00;;
50709;SDS011;37033;49.994;21.992;2023-06-10T00:51:50;10.70;;;7.40;;
50709;SDS011;37033;49.994;21.992;2023-06-10T00:54:21;6.50;;;5.90;;
50709;SDS011;37033;49.994;21.992;2023-06-10T00:56:53;8.20;;;6.90;;
50709;SDS011;37033;49.994;21.992;2023-06-10T00:59:25;7.20;;;6.10;;
50709;SDS011;37033;49.994;21.992;2023-06-10T01:01:56;7.60;;;6.20;;
50709;SDS011;37033;49.994;21.992;2023-06-10T01:04:28;8.30;;;6.50;;
50709;SDS011;37033;49.994;21.992;2023-06-10T01:07:01;8.00;;;6.80;;
50709;SDS011;37033;49.994;21.992;2023-06-10T01:09:42;9.20;;;7.30;;
50709;SDS011;37033;49.994;21.992;2023-06-10T01:12:22;9.80;;;6.50;;
50709;SDS011;37033;49.994;21.992;2023-06-10T01:15:00;7.30;;;6.60;;
50709;SDS011;37033;49.994;21.992;2023-06-10T01:17:31;7.60;;;6.80;;
50709;SDS011;37033;49.994;21.992;2023-06-10T01:20:04;7.70;;;7.00;;
50709;SDS011;37033;49.994;21.992;2023-06-10T01:22:40;7.80;;;6.60;;
50709;SDS011;37033;49.994;21.992;2023-06-10T01:25:13;11.30;;;7.30;;
50709;SDS011;37033;49.994;21.992;2023-06-10T01:27:44;8.60;;;7.00;;
50709;SDS011;37033;49.994;21.992;2023-06-10T01:30:18;10.30;;;7.30;;
50709;SDS011;37033;49.994;21.992;2023-06-10T01:32:57;10.20;;;7.50;;
50709;SDS011;37033;49.994;21.992;2023-06-10T01:35:30;8.90;;;7.60;;
50709;SDS011;37033;49.994;21.992;2023-06-10T01:38:02;11.10;;;6.90;;
50709;SDS011;37033;49.994;21.992;2023-06-10T01:40:33;7.30;;;6.60;;
50709;SDS011;37033;49.994;21.992;2023-06-10T01:43:05;7.80;;;6.70;;
50709;SDS011;37033;49.994;21.992;2023-06-10T01:45:35;8.40;;;7.20;;
50709;SDS011;37033;49.994;21.992;2023-06-10T01:48:06;9.40;;;6.60;;
50709;SDS011;37033;49.994;21.992;2023-06-10T01:50:37;7.20;;;6.50;;
50709;SDS011;37033;49.994;21.992;2023-06-10T01:53:07;8.10;;;6.60;;
50709;SDS011;37033;49.994;21.992;2023-06-10T01:55:38;10.20;;;6.70;;
50709;SDS011;37033;49.994;21.992;2023-06-10T01:58:09;8.10;;;7.20;;
50709;SDS011;37033;49.994;21.992;2023-06-10T02:00:40;9.50;;;6.70;;
50709;SDS011;37033;49.994;21.992;2023-06-10T02:03:10;7.90;;;6.60;;
50709;SDS011;37033;49.994;21.992;2023-06-10T02:05:41;7.10;;;6.50;;
50709;SDS011;37033;49.994;21.992;2023-06-10T02:08:12;6.20;;;5.60;;
50709;SDS011;37033;49.994;21.992;2023-06-10T02:10:42;6.20;;;5.70;;
50709;SDS011;37033;49.994;21.992;2023-06-10T02:13:13;7.10;;;5.60;;
50709;SDS011;37033;49.994;21.992;2023-06-10T02:15:44;6.40;;;5.80;;
50709;SDS011;37033;49.994;21.992;2023-06-10T02:18:14;7.30;;;6.10;;
50709;SDS011;37033;49.994;21.992;2023-06-10T02:20:48;6.60;;;6.00;;
50709;SDS011;37033;49.994;21.992;2023-06-10T02:23:19;6.70;;;6.10;;
50709;SDS011;37033;49.994;21.992;2023-06-10T02:25:49;6.30;;;5.70;;
50709;SDS011;37033;49.994;21.992;2023-06-10T02:28:20;8.70;;;5.90;;
50709;SDS011;37033;49.994;21.992;2023-06-10T02:30:51;7.70;;;5.40;;
50709;SDS011;37033;49.994;21.992;2023-06-10T02:33:21;6.90;;;6.30;;
50709;SDS011;37033;49.994;21.992;2023-06-10T02:35:52;7.90;;;6.00;;
50709;SDS011;37033;49.994;21.992;2023-06-10T02:38:24;7.10;;;6.10;;
50709;SDS011;37033;49.994;21.992;2023-06-10T02:40:54;6.70;;;6.10;;
50709;SDS011;37033;49.994;21.992;2023-06-10T02:43:25;6.30;;;5.80;;
50709;SDS011;37033;49.994;21.992;2023-06-10T02:45:55;7.90;;;6.30;;
50709;SDS011;37033;49.994;21.992;2023-06-10T02:48:26;9.10;;;6.50;;
50709;SDS011;37033;49.994;21.992;2023-06-10T02:50:57;6.90;;;6.30;;
50709;SDS011;37033;49.994;21.992;2023-06-10T02:53:28;7.50;;;6.70;;
50709;SDS011;37033;49.994;21.992;2023-06-10T02:55:58;7.00;;;6.30;;
50709;SDS011;37033;49.994;21.992;2023-06-10T02:58:29;9.30;;;6.60;;
50709;SDS011;37033;49.994;21.992;2023-06-10T03:01:00;7.40;;;6.70;;
50709;SDS011;37033;49.994;21.992;2023-06-10T03:03:30;6.90;;;6.10;;
50709;SDS011;37033;49.994;21.992;2023-06-10T03:06:02;7.30;;;6.20;;
50709;SDS011;37033;49.994;21.992;2023-06-10T03:08:32;9.10;;;6.90;;
50709;SDS011;37033;49.994;21.992;2023-06-10T03:11:03;7.60;;;6.90;;
50709;SDS011;37033;49.994;21.992;2023-06-10T03:13:34;11.00;;;7.10;;
50709;SDS011;37033;49.994;21.992;2023-06-10T03:16:05;7.70;;;7.00;;
50709;SDS011;37033;49.994;21.992;2023-06-10T03:18:36;7.40;;;6.60;;
50709;SDS011;37033;49.994;21.992;2023-06-10T03:21:06;8.00;;;6.70;;
50709;SDS011;37033;49.994;21.992;2023-06-10T03:23:37;8.30;;;7.00;;
50709;SDS011;37033;49.994;21.992;2023-06-10T03:26:08;9.10;;;6.50;;
50709;SDS011;37033;49.994;21.992;2023-06-10T03:28:40;7.40;;;6.70;;
50709;SDS011;37033;49.994;21.992;2023-06-10T03:31:11;7.30;;;6.60;;
50709;SDS011;37033;49.994;21.992;2023-06-10T03:33:41;7.30;;;6.60;;
50709;SDS011;37033;49.994;21.992;2023-06-10T03:36:12;8.00;;;6.60;;
50709;SDS011;37033;49.994;21.992;2023-06-10T03:38:43;10.00;;;7.00;;
50709;SDS011;37033;49.994;21.992;2023-06-10T03:41:13;8.90;;;6.60;;
50709;SDS011;37033;49.994;21.992;2023-06-10T03:43:44;11.10;;;6.90;;
50709;SDS011;37033;49.994;21.992;2023-06-10T03:46:14;9.20;;;7.50;;
50709;SDS011;37033;49.994;21.992;2023-06-10T03:48:46;8.00;;;7.20;;
50709;SDS011;37033;49.994;21.992;2023-06-10T03:51:17;8.80;;;7.80;;
50709;SDS011;37033;49.994;21.992;2023-06-10T03:53:48;9.40;;;8.50;;
50709;SDS011;37033;49.994;21.992;2023-06-10T03:56:18;9.30;;;8.40;;
50709;SDS011;37033;49.994;21.992;2023-06-10T03:58:49;9.10;;;7.80;;
50709;SDS011;37033;49.994;21.992;2023-06-10T04:01:20;20.70;;;9.40;;
50709;SDS011;37033;49.994;21.992;2023-06-10T04:03:51;10.20;;;8.40;;
50709;SDS011;37033;49.994;21.992;2023-06-10T04:06:22;11.10;;;9.30;;
50709;SDS011;37033;49.994;21.992;2023-06-10T04:08:53;10.20;;;9.10;;
50709;SDS011;37033;49.994;21.992;2023-06-10T04:11:24;10.90;;;9.00;;
50709;SDS011;37033;49.994;21.992;2023-06-10T04:13:55;10.40;;;9.40;;
50709;SDS011;37033;49.994;21.992;2023-06-10T04:16:26;13.10;;;9.00;;
50709;SDS011;37033;49.994;21.992;2023-06-10T04:18:56;11.30;;;9.50;;
50709;SDS011;37033;49.994;21.992;2023-06-10T04:21:27;12.10;;;9.60;;
50709;SDS011;37033;49.994;21.992;2023-06-10T04:23:58;13.00;;;9.70;;
50709;SDS011;37033;49.994;21.992;2023-06-10T04:26:28;9.50;;;8.50;;
50709;SDS011;37033;49.994;21.992;2023-06-10T04:28:59;9.90;;;8.90;;
50709;SDS011;37033;49.994;21.992;2023-06-10T04:31:30;9.50;;;8.20;;
50709;SDS011;37033;49.994;21.992;2023-06-10T04:34:00;11.60;;;7.60;;
50709;SDS011;37033;49.994;21.992;2023-06-10T04:36:31;13.00;;;8.20;;
50709;SDS011;37033;49.994;21.992;2023-06-10T04:39:02;15.40;;;8.30;;
50709;SDS011;37033;49.994;21.992;2023-06-10T04:41:33;13.60;;;8.10;;
50709;SDS011;37033;49.994;21.992;2023-06-10T04:44:04;12.20;;;8.60;;
50709;SDS011;37033;49.994;21.992;2023-06-10T04:46:34;10.50;;;9.50;;
50709;SDS011;37033;49.994;21.992;2023-06-10T04:49:05;9.70;;;8.70;;
50709;SDS011;37033;49.994;21.992;2023-06-10T04:51:36;10.50;;;9.30;;
50709;SDS011;37033;49.994;21.992;2023-06-10T04:54:06;9.70;;;8.80;;
50709;SDS011;37033;49.994;21.992;2023-06-10T04:56:37;10.50;;;9.50;;
50709;SDS011;37033;49.994;21.992;2023-06-10T04:59:08;10.10;;;8.90;;
50709;SDS011;37033;49.994;21.992;2023-06-10T05:01:38;11.60;;;8.80;;
50709;SDS011;37033;49.994;21.992;2023-06-10T05:04:09;10.50;;;9.60;;
50709;SDS011;37033;49.994;21.992;2023-06-10T05:06:40;10.90;;;9.80;;
50709;SDS011;37033;49.994;21.992;2023-06-10T05:09:10;11.00;;;9.80;;
50709;SDS011;37033;49.994;21.992;2023-06-10T05:11:41;11.50;;;10.20;;
50709;SDS011;37033;49.994;21.992;2023-06-10T05:14:12;12.10;;;10.60;;
50709;SDS011;37033;49.994;21.992;2023-06-10T05:16:44;12.40;;;11.10;;
50709;SDS011;37033;49.994;21.992;2023-06-10T05:19:14;11.70;;;10.50;;
50709;SDS011;37033;49.994;21.992;2023-06-10T05:21:45;10.80;;;9.70;;
50709;SDS011;37033;49.994;21.992;2023-06-10T05:24:16;12.80;;;11.50;;
50709;SDS011;37033;49.994;21.992;2023-06-10T05:26:46;15.00;;;11.10;;
50709;SDS011;37033;49.994;21.992;2023-06-10T05:29:17;14.70;;;10.20;;
50709;SDS011;37033;49.994;21.992;2023-06-10T05:31:48;12.00;;;10.80;;
50709;SDS011;37033;49.994;21.992;2023-06-10T05:34:19;12.20;;;10.90;;
50709;SDS011;37033;49.994;21.992;2023-06-10T05:36:49;11.30;;;10.10;;
50709;SDS011;37033;49.994;21.992;2023-06-10T05:39:20;11.00;;;9.80;;
50709;SDS011;37033;49.994;21.992;2023-06-10T05:41:51;10.80;;;9.80;;
50709;SDS011;37033;49.994;21.992;2023-06-10T05:44:21;9.40;;;8.60;;
50709;SDS011;37033;49.994;21.992;2023-06-10T05:46:52;11.00;;;9.90;;
50709;SDS011;37033;49.994;21.992;2023-06-10T05:49:23;11.30;;;10.10;;
50709;SDS011;37033;49.994;21.992;2023-06-10T05:51:53;10.30;;;9.20;;
50709;SDS011;37033;49.994;21.992;2023-06-10T05:54:26;10.60;;;9.50;;
50709;SDS011;37033;49.994;21.992;2023-06-10T05:56:57;10.00;;;9.10;;
50709;SDS011;37033;49.994;21.992;2023-06-10T05:59:27;10.00;;;9.10;;
50709;SDS011;37033;49.994;21.992;2023-06-10T06:01:58;9.80;;;9.00;;
50709;SDS011;37033;49.994;21.992;2023-06-10T06:04:29;11.40;;;9.40;;
50709;SDS011;37033;49.994;21.992;2023-06-10T06:07:00;14.50;;;8.80;;
50709;SDS011;37033;49.994;21.992;2023-06-10T06:09:30;9.60;;;8.70;;
50709;SDS011;37033;49.994;21.992;2023-06-10T06:12:01;8.90;;;8.10;;
50709;SDS011;37033;49.994;21.992;2023-06-10T06:14:36;9.00;;;8.10;;
50709;SDS011;37033;49.994;21.992;2023-06-10T06:17:08;8.90;;;8.20;;
50709;SDS011;37033;49.994;21.992;2023-06-10T06:19:38;11.50;;;8.60;;
50709;SDS011;37033;49.994;21.992;2023-06-10T06:22:09;8.90;;;8.00;;
50709;SDS011;37033;49.994;21.992;2023-06-10T06:24:40;9.80;;;7.60;;
50709;SDS011;37033;49.994;21.992;2023-06-10T06:27:11;10.50;;;7.90;;
50709;SDS011;37033;49.994;21.992;2023-06-10T06:29:42;9.40;;;8.50;;
50709;SDS011;37033;49.994;21.992;2023-06-10T06:32:12;9.20;;;8.40;;
50709;SDS011;37033;49.994;21.992;2023-06-10T06:34:43;9.70;;;8.60;;
50709;SDS011;37033;49.994;21.992;2023-06-10T06:37:14;12.10;;;8.60;;
50709;SDS011;37033;49.994;21.992;2023-06-10T06:39:45;9.60;;;8.60;;
50709;SDS011;37033;49.994;21.992;2023-06-10T06:42:16;8.60;;;7.70;;
50709;SDS011;37033;49.994;21.992;2023-06-10T06:44:47;9.80;;;8.20;;
50709;SDS011;37033;49.994;21.992;2023-06-10T06:47:17;9.60;;;8.70;;
50709;SDS011;37033;49.994;21.992;2023-06-10T06:49:48;8.40;;;7.70;;
50709;SDS011;37033;49.994;21.992;2023-06-10T06:52:19;9.00;;;8.10;;
50709;SDS011;37033;49.994;21.992;2023-06-10T06:54:50;11.90;;;8.40;;
50709;SDS011;37033;49.994;21.992;2023-06-10T06:57:21;19.70;;;8.60;;
50709;SDS011;37033;49.994;21.992;2023-06-10T06:59:52;10.70;;;7.90;;
50709;SDS011;37033;49.994;21.992;2023-06-10T07:02:22;8.30;;;7.00;;
50709;SDS011;37033;49.994;21.992;2023-06-10T07:04:53;11.30;;;8.10;;
50709;SDS011;37033;49.994;21.992;2023-06-10T07:07:23;11.20;;;8.40;;
50709;SDS011;37033;49.994;21.992;2023-06-10T07:09:54;8.40;;;6.90;;
50709;SDS011;37033;49.994;21.992;2023-06-10T07:12:25;7.90;;;7.00;;
50709;SDS011;37033;49.994;21.992;2023-06-10T07:14:55;8.20;;;7.50;;
50709;SDS011;37033;49.994;21.992;2023-06-10T07:17:26;7.10;;;6.50;;
50709;SDS011;37033;49.994;21.992;2023-06-10T07:19:57;8.00;;;7.10;;
50709;SDS011;37033;49.994;21.992;2023-06-10T07:22:27;7.80;;;6.90;;
50709;SDS011;37033;49.994;21.992;2023-06-10T07:24:58;8.20;;;7.40;;
50709;SDS011;37033;49.994;21.992;2023-06-10T07:27:29;8.00;;;7.20;;
50709;SDS011;37033;49.994;21.992;2023-06-10T07:30:00;7.60;;;7.00;;
50709;SDS011;37033;49.994;21.992;2023-06-10T07:32:30;8.00;;;6.80;;
50709;SDS011;37033;49.994;21.992;2023-06-10T07:35:01;9.20;;;6.70;;
50709;SDS011;37033;49.994;21.992;2023-06-10T07:37:32;7.40;;;6.60;;
50709;SDS011;37033;49.994;21.992;2023-06-10T07:40:03;7.80;;;6.40;;
50709;SDS011;37033;49.994;21.992;2023-06-10T07:42:35;10.60;;;5.90;;
50709;SDS011;37033;49.994;21.992;2023-06-10T07:45:07;7.50;;;6.30;;
50709;SDS011;37033;49.994;21.992;2023-06-10T07:47:40;6.40;;;5.90;;
50709;SDS011;37033;49.994;21.992;2023-06-10T07:50:11;8.20;;;6.20;;
50709;SDS011;37033;49.994;21.992;2023-06-10T07:52:42;7.60;;;6.80;;
50709;SDS011;37033;49.994;21.992;2023-06-10T07:55:13;7.20;;;6.30;;
50709;SDS011;37033;49.994;21.992;2023-06-10T07:57:43;6.60;;;6.00;;
50709;SDS011;37033;49.994;21.992;2023-06-10T08:00:14;7.10;;;6.10;;
50709;SDS011;37033;49.994;21.992;2023-06-10T08:02:46;10.00;;;6.80;;
50709;SDS011;37033;49.994;21.992;2023-06-10T08:05:17;8.40;;;6.40;;
50709;SDS011;37033;49.994;21.992;2023-06-10T08:07:48;6.10;;;5.60;;
50709;SDS011;37033;49.994;21.992;2023-06-10T08:10:18;7.00;;;6.30;;
50709;SDS011;37033;49.994;21.992;2023-06-10T08:12:49;7.50;;;6.70;;
50709;SDS011;37033;49.994;21.992;2023-06-10T08:15:21;7.50;;;6.80;;
50709;SDS011;37033;49.994;21.992;2023-06-10T08:17:52;8.10;;;5.90;;
50709;SDS011;37033;49.994;21.992;2023-06-10T08:20:24;6.50;;;5.90;;
50709;SDS011;37033;49.994;21.992;2023-06-10T08:22:54;9.50;;;5.70;;
50709;SDS011;37033;49.994;21.992;2023-06-10T08:25:25;6.40;;;5.90;;
50709;SDS011;37033;49.994;21.992;2023-06-10T08:27:56;8.70;;;7.40;;
50709;SDS011;37033;49.994;21.992;2023-06-10T08:30:26;6.50;;;5.90;;
50709;SDS011;37033;49.994;21.992;2023-06-10T08:32:58;7.10;;;6.30;;
50709;SDS011;37033;49.994;21.992;2023-06-10T08:35:29;7.30;;;6.50;;
50709;SDS011;37033;49.994;21.992;2023-06-10T08:38:00;7.40;;;6.50;;
50709;SDS011;37033;49.994;21.992;2023-06-10T08:40:30;5.80;;;5.40;;
50709;SDS011;37033;49.994;21.992;2023-06-10T08:43:04;6.30;;;5.80;;
50709;SDS011;37033;49.994;21.992;2023-06-10T08:45:36;6.10;;;5.60;;
50709;SDS011;37033;49.994;21.992;2023-06-10T08:48:07;7.80;;;7.00;;
50709;SDS011;37033;49.994;21.992;2023-06-10T08:50:39;6.30;;;5.80;;
50709;SDS011;37033;49.994;21.992;2023-06-10T08:53:11;8.70;;;6.10;;
50709;SDS011;37033;49.994;21.992;2023-06-10T08:55:49;5.30;;;4.90;;
50709;SDS011;37033;49.994;21.992;2023-06-10T09:00:50;6.10;;;5.50;;
50709;SDS011;37033;49.994;21.992;2023-06-10T09:03:21;5.80;;;5.20;;
50709;SDS011;37033;49.994;21.992;2023-06-10T09:05:53;5.80;;;4.70;;
50709;SDS011;37033;49.994;21.992;2023-06-10T09:08:24;6.10;;;5.20;;
50709;SDS011;37033;49.994;21.992;2023-06-10T09:10:55;7.50;;;5.10;;
50709;SDS011;37033;49.994;21.992;2023-06-10T09:13:26;5.30;;;4.90;;
50709;SDS011;37033;49.994;21.992;2023-06-10T09:15:57;7.00;;;5.00;;
50709;SDS011;37033;49.994;21.992;2023-06-10T09:18:29;5.80;;;5.20;;
50709;SDS011;37033;49.994;21.992;2023-06-10T09:21:00;5.80;;;5.10;;
50709;SDS011;37033;49.994;21.992;2023-06-10T09:23:31;6.60;;;5.00;;
50709;SDS011;37033;49.994;21.992;2023-06-10T09:26:02;10.50;;;4.70;;
50709;SDS011;37033;49.994;21.992;2023-06-10T09:28:36;5.30;;;4.70;;
50709;SDS011;37033;49.994;21.992;2023-06-10T09:31:08;5.20;;;4.70;;
50709;SDS011;37033;49.994;21.992;2023-06-10T09:33:40;5.80;;;5.20;;
50709;SDS011;37033;49.994;21.992;2023-06-10T09:36:11;5.20;;;4.80;;
50709;SDS011;37033;49.994;21.992;2023-06-10T09:38:51;4.90;;;4.50;;
50709;SDS011;37033;49.994;21.992;2023-06-10T09:41:29;8.00;;;5.40;;
50709;SDS011;37033;49.994;21.992;2023-06-10T09:44:05;7.40;;;4.60;;
50709;SDS011;37033;49.994;21.992;2023-06-10T09:46:42;5.00;;;4.20;;
50709;SDS011;37033;49.994;21.992;2023-06-10T09:49:14;5.00;;;4.60;;
50709;SDS011;37033;49.994;21.992;2023-06-10T09:51:51;4.10;;;3.80;;
50709;SDS011;37033;49.994;21.992;2023-06-10T09:54:23;5.50;;;4.50;;
50709;SDS011;37033;49.994;21.992;2023-06-10T09:57:00;5.00;;;3.70;;
50709;SDS011;37033;49.994;21.992;2023-06-10T09:59:38;4.20;;;3.90;;
50709;SDS011;37033;49.994;21.992;2023-06-10T10:02:13;6.70;;;4.80;;
50709;SDS011;37033;49.994;21.992;2023-06-10T10:04:45;3.90;;;3.60;;
50709;SDS011;37033;49.994;21.992;2023-06-10T10:07:16;5.30;;;3.80;;
50709;SDS011;37033;49.994;21.992;2023-06-10T10:09:46;5.10;;;4.60;;
50709;SDS011;37033;49.994;21.992;2023-06-10T10:12:17;5.50;;;3.70;;
50709;SDS011;37033;49.994;21.992;2023-06-10T10:14:49;5.40;;;4.00;;
50709;SDS011;37033;49.994;21.992;2023-06-10T10:17:21;3.80;;;3.50;;
50709;SDS011;37033;49.994;21.992;2023-06-10T10:19:55;4.30;;;4.00;;
50709;SDS011;37033;49.994;21.992;2023-06-10T10:22:31;3.60;;;3.30;;
50709;SDS011;37033;49.994;21.992;2023-06-10T10:25:08;4.30;;;3.90;;
50709;SDS011;37033;49.994;21.992;2023-06-10T10:27:43;3.80;;;3.50;;
50709;SDS011;37033;49.994;21.992;2023-06-10T10:30:17;8.70;;;3.50;;
50709;SDS011;37033;49.994;21.992;2023-06-10T10:32:53;4.50;;;3.50;;
50709;SDS011;37033;49.994;21.992;2023-06-10T10:35:29;3.90;;;3.60;;
50709;SDS011;37033;49.994;21.992;2023-06-10T10:38:01;3.60;;;3.30;;
50709;SDS011;37033;49.994;21.992;2023-06-10T10:40:33;6.30;;;3.40;;
50709;SDS011;37033;49.994;21.992;2023-06-10T10:43:05;3.30;;;3.00;;
50709;SDS011;37033;49.994;21.992;2023-06-10T10:45:37;4.60;;;3.50;;
50709;SDS011;37033;49.994;21.992;2023-06-10T10:48:09;3.80;;;3.40;;
50709;SDS011;37033;49.994;21.992;2023-06-10T10:50:40;3.80;;;3.50;;
50709;SDS011;37033;49.994;21.992;2023-06-10T10:53:11;3.10;;;2.80;;
50709;SDS011;37033;49.994;21.992;2023-06-10T10:55:58;4.40;;;3.30;;
50709;SDS011;37033;49.994;21.992;2023-06-10T10:58:33;3.70;;;2.90;;
50709;SDS011;37033;49.994;21.992;2023-06-10T11:01:14;6.10;;;3.60;;
50709;SDS011;37033;49.994;21.992;2023-06-10T11:03:45;5.10;;;3.50;;
50709;SDS011;37033;49.994;21.992;2023-06-10T11:06:18;3.60;;;3.30;;
50709;SDS011;37033;49.994;21.992;2023-06-10T11:08:48;4.80;;;4.00;;
50709;SDS011;37033;49.994;21.992;2023-06-10T11:11:20;4.50;;;4.10;;
50709;SDS011;37033;49.994;21.992;2023-06-10T11:13:59;3.60;;;3.30;;
50709;SDS011;37033;49.994;21.992;2023-06-10T11:16:40;4.50;;;4.10;;
50709;SDS011;37033;49.994;21.992;2023-06-10T11:19:11;5.20;;;4.40;;
50709;SDS011;37033;49.994;21.992;2023-06-10T11:22:02;6.30;;;4.60;;
50709;SDS011;37033;49.994;21.992;2023-06-10T11:24:37;4.80;;;4.20;;
50709;SDS011;37033;49.994;21.992;2023-06-10T11:27:17;6.50;;;3.60;;
50709;SDS011;37033;49.994;21.992;2023-06-10T11:30:00;5.50;;;3.80;;
50709;SDS011;37033;49.994;21.992;2023-06-10T11:32:51;4.40;;;3.70;;
50709;SDS011;37033;49.994;21.992;2023-06-10T11:35:24;3.90;;;3.60;;
50709;SDS011;37033;49.994;21.992;2023-06-10T11:37:55;4.20;;;3.90;;
50709;SDS011;37033;49.994;21.992;2023-06-10T11:40:26;3.90;;;3.50;;
50709;SDS011;37033;49.994;21.992;2023-06-10T11:42:58;4.60;;;3.90;;
50709;SDS011;37033;49.994;21.992;2023-06-10T11:45:29;4.50;;;4.10;;
50709;SDS011;37033;49.994;21.992;2023-06-10T11:47:59;5.00;;;4.10;;
50709;SDS011;37033;49.994;21.992;2023-06-10T11:50:31;4.80;;;4.20;;
50709;SDS011;37033;49.994;21.992;2023-06-10T11:53:03;4.60;;;3.90;;
50709;SDS011;37033;49.994;21.992;2023-06-10T11:55:43;4.20;;;3.90;;
50709;SDS011;37033;49.994;21.992;2023-06-10T11:58:15;5.20;;;4.80;;
50709;SDS011;37033;49.994;21.992;2023-06-10T12:00:47;6.40;;;4.70;;
50709;SDS011;37033;49.994;21.992;2023-06-10T12:03:18;4.90;;;3.90;;
50709;SDS011;37033;49.994;21.992;2023-06-10T12:05:59;4.30;;;4.00;;
50709;SDS011;37033;49.994;21.992;2023-06-10T12:08:32;5.40;;;3.80;;
50709;SDS011;37033;49.994;21.992;2023-06-10T12:11:10;4.60;;;4.20;;
50709;SDS011;37033;49.994;21.992;2023-06-10T12:13:46;4.80;;;4.40;;
50709;SDS011;37033;49.994;21.992;2023-06-10T12:16:18;4.50;;;3.90;;
50709;SDS011;37033;49.994;21.992;2023-06-10T12:18:49;4.30;;;4.00;;
50709;SDS011;37033;49.994;21.992;2023-06-10T12:21:20;6.60;;;4.30;;
50709;SDS011;37033;49.994;21.992;2023-06-10T12:26:36;5.00;;;4.40;;
50709;SDS011;37033;49.994;21.992;2023-06-10T12:32:00;4.30;;;3.90;;
50709;SDS011;37033;49.994;21.992;2023-06-10T12:34:36;4.80;;;4.10;;
50709;SDS011;37033;49.994;21.992;2023-06-10T12:37:13;4.50;;;3.80;;
50709;SDS011;37033;49.994;21.992;2023-06-10T12:39:50;4.00;;;3.70;;
50709;SDS011;37033;49.994;21.992;2023-06-10T12:42:22;7.50;;;4.60;;
50709;SDS011;37033;49.994;21.992;2023-06-10T12:44:54;4.10;;;3.80;;
50709;SDS011;37033;49.994;21.992;2023-06-10T12:47:31;4.30;;;3.90;;
50709;SDS011;37033;49.994;21.992;2023-06-10T12:50:04;5.70;;;4.40;;
50709;SDS011;37033;49.994;21.992;2023-06-10T12:52:36;6.40;;;3.90;;
50709;SDS011;37033;49.994;21.992;2023-06-10T12:55:07;5.60;;;4.40;;
50709;SDS011;37033;49.994;21.992;2023-06-10T12:57:38;5.80;;;4.10;;
50709;SDS011;37033;49.994;21.992;2023-06-10T13:00:18;4.80;;;3.80;;
50709;SDS011;37033;49.994;21.992;2023-06-10T13:02:50;3.60;;;3.30;;
50709;SDS011;37033;49.994;21.992;2023-06-10T13:05:21;5.60;;;4.00;;
50709;SDS011;37033;49.994;21.992;2023-06-10T13:07:51;4.70;;;4.20;;
50709;SDS011;37033;49.994;21.992;2023-06-10T13:10:23;5.40;;;3.80;;
50709;SDS011;37033;49.994;21.992;2023-06-10T13:12:53;5.90;;;4.50;;
50709;SDS011;37033;49.994;21.992;2023-06-10T13:15:24;7.20;;;3.60;;
50709;SDS011;37033;49.994;21.992;2023-06-10T13:17:55;4.60;;;4.20;;
50709;SDS011;37033;49.994;21.992;2023-06-10T13:20:26;4.50;;;3.80;;
50709;SDS011;37033;49.994;21.992;2023-06-10T13:22:57;4.10;;;3.60;;
50709;SDS011;37033;49.994;21.992;2023-06-10T13:25:27;4.00;;;3.70;;
50709;SDS011;37033;49.994;21.992;2023-06-10T13:27:58;3.90;;;3.60;;
50709;SDS011;37033;49.994;21.992;2023-06-10T13:30:29;4.30;;;3.90;;
50709;SDS011;37033;49.994;21.992;2023-06-10T13:32:59;9.10;;;7.00;;
50709;SDS011;37033;49.994;21.992;2023-06-10T13:35:30;4.20;;;3.90;;
50709;SDS011;37033;49.994;21.992;2023-06-10T13:38:01;5.10;;;4.40;;
50709;SDS011;37033;49.994;21.992;2023-06-10T13:40:31;4.70;;;3.80;;
50709;SDS011;37033;49.994;21.992;2023-06-10T13:43:02;5.10;;;4.60;;
50709;SDS011;37033;49.994;21.992;2023-06-10T13:45:36;4.60;;;3.70;;
50709;SDS011;37033;49.994;21.992;2023-06-10T13:48:07;6.80;;;4.00;;
50709;SDS011;37033;49.994;21.992;2023-06-10T13:50:38;3.80;;;3.50;;
50709;SDS011;37033;49.994;21.992;2023-06-10T13:53:13;3.40;;;3.10;;
50709;SDS011;37033;49.994;21.992;2023-06-10T13:55:43;3.80;;;3.50;;
50709;SDS011;37033;49.994;21.992;2023-06-10T13:58:14;4.00;;;3.60;;
50709;SDS011;37033;49.994;21.992;2023-06-10T14:00:45;4.10;;;3.80;;
50709;SDS011;37033;49.994;21.992;2023-06-10T14:03:16;5.20;;;3.50;;
50709;SDS011;37033;49.994;21.992;2023-06-10T14:05:47;4.10;;;3.40;;
50709;SDS011;37033;49.994;21.992;2023-06-10T14:08:18;5.10;;;3.90;;
50709;SDS011;37033;49.994;21.992;2023-06-10T14:10:49;4.80;;;4.40;;
50709;SDS011;37033;49.994;21.992;2023-06-10T14:13:20;5.80;;;5.10;;
50709;SDS011;37033;49.994;21.992;2023-06-10T14:15:51;7.80;;;4.10;;
50709;SDS011;37033;49.994;21.992;2023-06-10T14:18:21;3.60;;;3.30;;
50709;SDS011;37033;49.994;21.992;2023-06-10T14:20:52;4.80;;;4.40;;
50709;SDS011;37033;49.994;21.992;2023-06-10T14:23:23;6.30;;;3.90;;
50709;SDS011;37033;49.994;21.992;2023-06-10T14:25:54;4.60;;;4.10;;
50709;SDS011;37033;49.994;21.992;2023-06-10T14:28:25;6.10;;;3.60;;
50709;SDS011;37033;49.994;21.992;2023-06-10T14:30:56;7.50;;;3.80;;
50709;SDS011;37033;49.994;21.992;2023-06-10T14:33:27;4.90;;;3.50;;
50709;SDS011;37033;49.994;21.992;2023-06-10T14:35:58;3.90;;;3.10;;
50709;SDS011;37033;49.994;21.992;2023-06-10T14:38:29;4.30;;;3.90;;
50709;SDS011;37033;49.994;21.992;2023-06-10T14:41:00;4.50;;;3.60;;
50709;SDS011;37033;49.994;21.992;2023-06-10T14:43:31;3.80;;;3.50;;
50709;SDS011;37033;49.994;21.992;2023-06-10T14:46:01;3.80;;;3.40;;
50709;SDS011;37033;49.994;21.992;2023-06-10T14:48:32;4.90;;;4.20;;
50709;SDS011;37033;49.994;21.992;2023-06-10T14:51:03;3.90;;;3.10;;
50709;SDS011;37033;49.994;21.992;2023-06-10T14:53:34;4.40;;;3.10;;
50709;SDS011;37033;49.994;21.992;2023-06-10T14:56:05;3.50;;;3.20;;
50709;SDS011;37033;49.994;21.992;2023-06-10T14:58:35;5.00;;;3.50;;
50709;SDS011;37033;49.994;21.992;2023-06-10T15:01:06;4.70;;;3.30;;
50709;SDS011;37033;49.994;21.992;2023-06-10T15:03:37;3.70;;;3.40;;
50709;SDS011;37033;49.994;21.992;2023-06-10T15:06:08;5.50;;;3.60;;